createdAt,value
2018-04-17T00:00:25.132Z,1015.82
2018-04-17T00:00:51.273Z,1015.86
2018-04-17T00:01:17.405Z,1015.83
2018-04-17T00:01:43.550Z,1015.8
2018-04-17T00:02:09.688Z,1015.81
2018-04-17T00:02:35.858Z,1015.83
2018-04-17T00:03:01.993Z,1015.83
2018-04-17T00:03:28.144Z,1015.84
2018-04-17T00:03:54.284Z,1015.82
2018-04-17T00:04:20.419Z,1015.81
2018-04-17T00:04:46.559Z,1015.84
2018-04-17T00:05:12.716Z,1015.84
2018-04-17T00:05:38.878Z,1015.81
2018-04-17T00:06:05.023Z,1015.83
2018-04-17T00:06:31.166Z,1015.77
2018-04-17T00:06:57.330Z,1015.83
2018-04-17T00:07:23.485Z,1015.84
2018-04-17T00:07:49.663Z,1015.84
2018-04-17T00:08:15.801Z,1015.84
2018-04-17T00:08:41.939Z,1015.82
2018-04-17T00:09:08.082Z,1015.84
2018-04-17T00:09:34.214Z,1015.83
2018-04-17T00:10:00.361Z,1015.87
2018-04-17T00:10:26.519Z,1015.89
2018-04-17T00:10:53.282Z,1015.81
2018-04-17T00:11:19.418Z,1015.81
2018-04-17T00:11:45.554Z,1015.86
2018-04-17T00:12:11.721Z,1015.85
2018-04-17T00:12:37.856Z,1015.86
2018-04-17T00:13:04.001Z,1015.84
2018-04-17T00:13:30.133Z,1015.86
2018-04-17T00:13:56.271Z,1015.87
2018-04-17T00:14:22.409Z,1015.88
2018-04-17T00:14:48.552Z,1015.88
2018-04-17T00:15:14.693Z,1015.88
2018-04-17T00:15:40.841Z,1015.88
2018-04-17T00:16:06.974Z,1015.87
2018-04-17T00:16:33.120Z,1015.88
2018-04-17T00:16:59.255Z,1015.85
2018-04-17T00:17:25.422Z,1015.91
2018-04-17T00:17:51.582Z,1015.93
2018-04-17T00:18:17.748Z,1015.86
2018-04-17T00:18:43.898Z,1015.87
2018-04-17T00:19:10.022Z,1015.89
2018-04-17T00:19:36.167Z,1015.86
2018-04-17T00:20:02.353Z,1015.88
2018-04-17T00:20:28.501Z,1015.92
2018-04-17T00:20:54.634Z,1015.92
2018-04-17T00:21:20.775Z,1015.93
2018-04-17T00:21:46.914Z,1015.91
2018-04-17T00:22:13.061Z,1015.93
2018-04-17T00:22:39.198Z,1015.95
2018-04-17T00:23:05.338Z,1015.91
2018-04-17T00:23:31.482Z,1015.92
2018-04-17T00:23:57.622Z,1015.97
2018-04-17T00:24:23.757Z,1015.95
2018-04-17T00:24:49.896Z,1015.94
2018-04-17T00:25:16.030Z,1015.94
2018-04-17T00:25:42.195Z,1015.95
2018-04-17T00:26:08.328Z,1015.92
2018-04-17T00:26:34.485Z,1015.91
2018-04-17T00:27:00.622Z,1015.9
2018-04-17T00:27:26.762Z,1015.94
2018-04-17T00:27:52.900Z,1015.92
2018-04-17T00:28:19.070Z,1015.95
2018-04-17T00:28:45.212Z,1015.87
2018-04-17T00:29:11.347Z,1015.94
2018-04-17T00:29:37.484Z,1015.94
2018-04-17T00:30:03.619Z,1015.94
2018-04-17T00:30:29.791Z,1015.93
2018-04-17T00:30:55.930Z,1015.96
2018-04-17T00:31:22.068Z,1015.96
2018-04-17T00:31:48.228Z,1015.99
2018-04-17T00:32:14.360Z,1015.98
2018-04-17T00:32:40.504Z,1015.98
2018-04-17T00:33:06.636Z,1015.94
2018-04-17T00:33:32.780Z,1015.96
2018-04-17T00:33:58.917Z,1015.94
2018-04-17T00:34:25.089Z,1015.97
2018-04-17T00:34:51.229Z,1015.99
2018-04-17T00:35:17.377Z,1015.92
2018-04-17T00:35:43.514Z,1015.93
2018-04-17T00:36:09.647Z,1015.94
2018-04-17T00:36:35.793Z,1015.94
2018-04-17T00:37:01.935Z,1015.96
2018-04-17T00:37:28.073Z,1015.95
2018-04-17T00:37:54.265Z,1015.94
2018-04-17T00:38:20.420Z,1015.92
2018-04-17T00:38:46.559Z,1015.94
2018-04-17T00:39:12.703Z,1016
2018-04-17T00:39:38.837Z,1015.99
2018-04-17T00:40:04.983Z,1015.99
2018-04-17T00:40:31.120Z,1016
2018-04-17T00:40:57.256Z,1015.95
2018-04-17T00:41:23.421Z,1015.96
2018-04-17T00:41:49.560Z,1015.98
2018-04-17T00:42:15.704Z,1015.98
2018-04-17T00:42:41.841Z,1015.98
2018-04-17T00:43:07.976Z,1016
2018-04-17T00:43:34.116Z,1015.99
2018-04-17T00:44:00.257Z,1016.01
2018-04-17T00:44:26.397Z,1016
2018-04-17T00:44:52.564Z,1016.01
2018-04-17T00:45:18.726Z,1016
2018-04-17T00:45:44.885Z,1015.98
2018-04-17T00:46:11.023Z,1015.97
2018-04-17T00:46:37.166Z,1015.99
2018-04-17T00:47:03.323Z,1016
2018-04-17T00:47:29.489Z,1015.97
2018-04-17T00:47:55.651Z,1015.99
2018-04-17T00:48:21.786Z,1016.01
2018-04-17T00:48:47.930Z,1016.03
2018-04-17T00:49:14.073Z,1016.02
2018-04-17T00:49:40.214Z,1016.01
2018-04-17T00:50:06.373Z,1016.02
2018-04-17T00:50:32.511Z,1016.08
2018-04-17T00:50:58.644Z,1016.01
2018-04-17T00:51:24.785Z,1016.05
2018-04-17T00:51:50.922Z,1016.02
2018-04-17T00:52:17.067Z,1016.05
2018-04-17T00:52:43.210Z,1016.02
2018-04-17T00:53:09.360Z,1016.04
2018-04-17T00:53:35.490Z,1016.07
2018-04-17T00:54:01.624Z,1016.05
2018-04-17T00:54:27.771Z,1016.07
2018-04-17T00:54:53.907Z,1016.07
2018-04-17T00:55:20.045Z,1016.09
2018-04-17T00:55:46.192Z,1016.05
2018-04-17T00:56:12.356Z,1016.1
2018-04-17T00:56:38.491Z,1016.05
2018-04-17T00:57:04.633Z,1016.06
2018-04-17T00:57:30.767Z,1016.09
2018-04-17T00:57:56.909Z,1016.06
2018-04-17T00:58:23.076Z,1016.07
2018-04-17T00:58:49.216Z,1016.1
2018-04-17T00:59:15.379Z,1016.1
2018-04-17T00:59:41.519Z,1016.1
2018-04-17T01:00:07.659Z,1016.11
2018-04-17T01:00:33.821Z,1016.12
2018-04-17T01:00:59.964Z,1016.14
2018-04-17T01:01:26.098Z,1016.14
2018-04-17T01:01:52.259Z,1016.15
2018-04-17T01:02:18.394Z,1016.14
2018-04-17T01:02:44.559Z,1016.15
2018-04-17T01:03:10.766Z,1016.15
2018-04-17T01:03:36.907Z,1016.15
2018-04-17T01:04:03.046Z,1016.18
2018-04-17T01:04:29.187Z,1016.17
2018-04-17T01:04:55.321Z,1016.19
2018-04-17T01:05:21.510Z,1016.19
2018-04-17T01:05:47.655Z,1016.17
2018-04-17T01:06:13.838Z,1016.21
2018-04-17T01:06:39.973Z,1016.22
2018-04-17T01:07:06.121Z,1016.19
2018-04-17T01:07:32.253Z,1016.17
2018-04-17T01:07:58.386Z,1016.24
2018-04-17T01:08:24.529Z,1016.22
2018-04-17T01:08:50.664Z,1016.21
2018-04-17T01:09:16.831Z,1016.23
2018-04-17T01:09:42.959Z,1016.21
2018-04-17T01:10:09.102Z,1016.23
2018-04-17T01:10:35.239Z,1016.25
2018-04-17T01:11:01.378Z,1016.25
2018-04-17T01:11:27.537Z,1016.22
2018-04-17T01:11:53.682Z,1016.21
2018-04-17T01:12:19.841Z,1016.21
2018-04-17T01:12:45.993Z,1016.2
2018-04-17T01:13:12.132Z,1016.22
2018-04-17T01:13:38.279Z,1016.22
2018-04-17T01:14:04.416Z,1016.22
2018-04-17T01:14:30.577Z,1016.21
2018-04-17T01:14:56.716Z,1016.22
2018-04-17T01:15:22.857Z,1016.22
2018-04-17T01:15:48.998Z,1016.21
2018-04-17T01:16:15.207Z,1016.23
2018-04-17T01:16:41.344Z,1016.25
2018-04-17T01:17:07.505Z,1016.24
2018-04-17T01:17:33.642Z,1016.25
2018-04-17T01:17:59.784Z,1016.23
2018-04-17T01:18:25.943Z,1016.24
2018-04-17T01:18:52.107Z,1016.23
2018-04-17T01:19:18.246Z,1016.25
2018-04-17T01:19:44.403Z,1016.28
2018-04-17T01:20:10.564Z,1016.28
2018-04-17T01:20:36.703Z,1016.27
2018-04-17T01:21:02.845Z,1016.27
2018-04-17T01:21:29.009Z,1016.27
2018-04-17T01:21:55.144Z,1016.3
2018-04-17T01:22:21.272Z,1016.24
2018-04-17T01:22:47.417Z,1016.28
2018-04-17T01:23:13.603Z,1016.28
2018-04-17T01:23:39.761Z,1016.31
2018-04-17T01:24:05.899Z,1016.29
2018-04-17T01:24:32.035Z,1016.29
2018-04-17T01:24:58.197Z,1016.31
2018-04-17T01:25:24.388Z,1016.29
2018-04-17T01:25:50.552Z,1016.33
2018-04-17T01:26:16.692Z,1016.34
2018-04-17T01:26:42.852Z,1016.33
2018-04-17T01:27:08.999Z,1016.34
2018-04-17T01:27:35.140Z,1016.32
2018-04-17T01:28:01.283Z,1016.3
2018-04-17T01:28:27.438Z,1016.33
2018-04-17T01:28:53.606Z,1016.31
2018-04-17T01:29:19.773Z,1016.33
2018-04-17T01:29:45.912Z,1016.32
2018-04-17T01:30:12.083Z,1016.35
2018-04-17T01:30:38.215Z,1016.33
2018-04-17T01:31:04.349Z,1016.36
2018-04-17T01:31:30.494Z,1016.35
2018-04-17T01:31:56.653Z,1016.33
2018-04-17T01:32:22.797Z,1016.35
2018-04-17T01:32:48.935Z,1016.32
2018-04-17T01:33:15.074Z,1016.35
2018-04-17T01:33:41.219Z,1016.35
2018-04-17T01:34:07.355Z,1016.36
2018-04-17T01:34:33.543Z,1016.34
2018-04-17T01:34:59.681Z,1016.37
2018-04-17T01:35:25.817Z,1016.36
2018-04-17T01:35:51.956Z,1016.41
2018-04-17T01:36:18.090Z,1016.4
2018-04-17T01:36:44.229Z,1016.42
2018-04-17T01:37:10.370Z,1016.45
2018-04-17T01:37:36.558Z,1016.45
2018-04-17T01:38:02.696Z,1016.42
2018-04-17T01:38:28.861Z,1016.43
2018-04-17T01:38:55.019Z,1016.42
2018-04-17T01:39:21.157Z,1016.45
2018-04-17T01:39:47.295Z,1016.44
2018-04-17T01:40:13.461Z,1016.45
2018-04-17T01:40:39.597Z,1016.45
2018-04-17T01:41:05.736Z,1016.47
2018-04-17T01:41:31.873Z,1016.46
2018-04-17T01:41:58.037Z,1016.49
2018-04-17T01:42:24.181Z,1016.48
2018-04-17T01:42:50.317Z,1016.49
2018-04-17T01:43:16.460Z,1016.52
2018-04-17T01:43:42.625Z,1016.49
2018-04-17T01:44:08.763Z,1016.49
2018-04-17T01:44:34.900Z,1016.46
2018-04-17T01:45:01.036Z,1016.47
2018-04-17T01:45:27.175Z,1016.49
2018-04-17T01:45:53.315Z,1016.49
2018-04-17T01:46:19.457Z,1016.51
2018-04-17T01:46:45.617Z,1016.5
2018-04-17T01:47:11.782Z,1016.47
2018-04-17T01:47:37.924Z,1016.46
2018-04-17T01:48:04.062Z,1016.47
2018-04-17T01:48:30.200Z,1016.48
2018-04-17T01:48:56.342Z,1016.49
2018-04-17T01:49:22.480Z,1016.49
2018-04-17T01:49:48.622Z,1016.48
2018-04-17T01:50:14.765Z,1016.51
2018-04-17T01:50:40.903Z,1016.51
2018-04-17T01:51:07.091Z,1016.49
2018-04-17T01:51:33.226Z,1016.51
2018-04-17T01:51:59.363Z,1016.52
2018-04-17T01:52:25.501Z,1016.53
2018-04-17T01:52:51.670Z,1016.51
2018-04-17T01:53:17.832Z,1016.51
2018-04-17T01:53:43.975Z,1016.5
2018-04-17T01:54:10.111Z,1016.5
2018-04-17T01:54:36.256Z,1016.52
2018-04-17T01:55:02.395Z,1016.49
2018-04-17T01:55:28.559Z,1016.52
2018-04-17T01:55:54.700Z,1016.53
2018-04-17T01:56:20.835Z,1016.5
2018-04-17T01:56:46.981Z,1016.51
2018-04-17T01:57:13.156Z,1016.52
2018-04-17T01:57:39.296Z,1016.47
2018-04-17T01:58:05.440Z,1016.51
2018-04-17T01:58:31.576Z,1016.53
2018-04-17T01:58:57.740Z,1016.49
2018-04-17T01:59:23.879Z,1016.52
2018-04-17T01:59:50.015Z,1016.49
2018-04-17T02:00:16.159Z,1016.5
2018-04-17T02:00:42.327Z,1016.49
2018-04-17T02:01:08.488Z,1016.47
2018-04-17T02:01:34.641Z,1016.46
2018-04-17T02:02:00.778Z,1016.5
2018-04-17T02:02:26.902Z,1016.5
2018-04-17T02:02:53.049Z,1016.47
2018-04-17T02:03:19.182Z,1016.46
2018-04-17T02:03:45.325Z,1016.45
2018-04-17T02:04:11.467Z,1016.42
2018-04-17T02:04:37.612Z,1016.43
2018-04-17T02:05:03.769Z,1016.43
2018-04-17T02:05:29.906Z,1016.44
2018-04-17T02:05:56.068Z,1016.46
2018-04-17T02:06:22.224Z,1016.44
2018-04-17T02:06:48.392Z,1016.4
2018-04-17T02:07:14.533Z,1016.49
2018-04-17T02:07:40.667Z,1016.45
2018-04-17T02:08:06.809Z,1016.45
2018-04-17T02:08:32.970Z,1016.49
2018-04-17T02:08:59.112Z,1016.47
2018-04-17T02:09:25.254Z,1016.46
2018-04-17T02:09:51.409Z,1016.45
2018-04-17T02:10:17.541Z,1016.45
2018-04-17T02:10:43.708Z,1016.47
2018-04-17T02:11:09.850Z,1016.44
2018-04-17T02:11:35.989Z,1016.46
2018-04-17T02:12:02.129Z,1016.44
2018-04-17T02:12:28.267Z,1016.44
2018-04-17T02:12:54.419Z,1016.43
2018-04-17T02:13:20.554Z,1016.44
2018-04-17T02:13:46.687Z,1016.44
2018-04-17T02:14:12.826Z,1016.46
2018-04-17T02:14:38.967Z,1016.44
2018-04-17T02:15:05.101Z,1016.41
2018-04-17T02:15:31.244Z,1016.44
2018-04-17T02:15:57.377Z,1016.44
2018-04-17T02:16:23.511Z,1016.43
2018-04-17T02:16:49.682Z,1016.42
2018-04-17T02:17:15.823Z,1016.44
2018-04-17T02:17:41.960Z,1016.44
2018-04-17T02:18:08.101Z,1016.46
2018-04-17T02:18:34.238Z,1016.45
2018-04-17T02:19:00.384Z,1016.47
2018-04-17T02:19:26.525Z,1016.46
2018-04-17T02:19:52.686Z,1016.45
2018-04-17T02:20:18.826Z,1016.49
2018-04-17T02:20:44.961Z,1016.5
2018-04-17T02:21:11.103Z,1016.5
2018-04-17T02:21:37.270Z,1016.53
2018-04-17T02:22:03.408Z,1016.54
2018-04-17T02:22:29.549Z,1016.55
2018-04-17T02:22:55.688Z,1016.54
2018-04-17T02:23:21.875Z,1016.55
2018-04-17T02:23:48.013Z,1016.54
2018-04-17T02:24:14.181Z,1016.55
2018-04-17T02:24:40.318Z,1016.57
2018-04-17T02:25:06.455Z,1016.56
2018-04-17T02:25:32.619Z,1016.52
2018-04-17T02:25:58.748Z,1016.54
2018-04-17T02:26:24.887Z,1016.54
2018-04-17T02:26:51.026Z,1016.54
2018-04-17T02:27:17.174Z,1016.56
2018-04-17T02:27:43.305Z,1016.57
2018-04-17T02:28:09.447Z,1016.55
2018-04-17T02:28:35.592Z,1016.56
2018-04-17T02:29:01.721Z,1016.57
2018-04-17T02:29:27.861Z,1016.56
2018-04-17T02:29:54.006Z,1016.59
2018-04-17T02:30:20.146Z,1016.56
2018-04-17T02:30:46.306Z,1016.59
2018-04-17T02:31:12.448Z,1016.6
2018-04-17T02:31:38.584Z,1016.58
2018-04-17T02:32:04.725Z,1016.6
2018-04-17T02:32:30.858Z,1016.58
2018-04-17T02:32:56.999Z,1016.61
2018-04-17T02:33:23.139Z,1016.63
2018-04-17T02:33:49.276Z,1016.63
2018-04-17T02:34:15.460Z,1016.63
2018-04-17T02:34:41.616Z,1016.65
2018-04-17T02:35:07.758Z,1016.64
2018-04-17T02:35:33.920Z,1016.67
2018-04-17T02:36:00.133Z,1016.67
2018-04-17T02:36:26.298Z,1016.66
2018-04-17T02:36:52.435Z,1016.68
2018-04-17T02:37:18.565Z,1016.71
2018-04-17T02:37:44.707Z,1016.69
2018-04-17T02:38:10.887Z,1016.68
2018-04-17T02:38:37.034Z,1016.68
2018-04-17T02:39:03.166Z,1016.68
2018-04-17T02:39:29.333Z,1016.71
2018-04-17T02:39:55.490Z,1016.71
2018-04-17T02:40:21.654Z,1016.72
2018-04-17T02:40:47.823Z,1016.72
2018-04-17T02:41:13.956Z,1016.71
2018-04-17T02:41:40.094Z,1016.73
2018-04-17T02:42:06.232Z,1016.74
2018-04-17T02:42:32.372Z,1016.77
2018-04-17T02:42:58.589Z,1016.76
2018-04-17T02:43:24.725Z,1016.77
2018-04-17T02:43:50.915Z,1016.8
2018-04-17T02:44:17.075Z,1016.75
2018-04-17T02:44:43.262Z,1016.75
2018-04-17T02:45:09.427Z,1016.77
2018-04-17T02:45:35.567Z,1016.79
2018-04-17T02:46:01.734Z,1016.8
2018-04-17T02:46:27.908Z,1016.78
2018-04-17T02:46:54.045Z,1016.81
2018-04-17T02:47:20.267Z,1016.8
2018-04-17T02:47:46.431Z,1016.79
2018-04-17T02:48:12.598Z,1016.83
2018-04-17T02:48:38.755Z,1016.82
2018-04-17T02:49:04.944Z,1016.83
2018-04-17T02:49:31.123Z,1016.81
2018-04-17T02:49:57.292Z,1016.83
2018-04-17T02:50:23.477Z,1016.8
2018-04-17T02:50:49.642Z,1016.84
2018-04-17T02:51:15.809Z,1016.82
2018-04-17T02:51:41.984Z,1016.85
2018-04-17T02:52:08.152Z,1016.85
2018-04-17T02:52:34.370Z,1016.85
2018-04-17T02:53:00.506Z,1016.84
2018-04-17T02:53:26.646Z,1016.85
2018-04-17T02:53:52.819Z,1016.87
2018-04-17T02:54:18.977Z,1016.86
2018-04-17T02:54:45.166Z,1016.87
2018-04-17T02:55:11.334Z,1016.86
2018-04-17T02:55:37.499Z,1016.84
2018-04-17T02:56:03.664Z,1016.84
2018-04-17T02:56:29.803Z,1016.86
2018-04-17T02:56:55.969Z,1016.87
2018-04-17T02:57:22.127Z,1016.86
2018-04-17T02:57:48.266Z,1016.86
2018-04-17T02:58:14.403Z,1016.86
2018-04-17T02:58:40.542Z,1016.85
2018-04-17T02:59:06.681Z,1016.85
2018-04-17T02:59:32.818Z,1016.84
2018-04-17T02:59:58.978Z,1016.85
2018-04-17T03:00:25.120Z,1016.8
2018-04-17T03:00:51.256Z,1016.85
2018-04-17T03:01:17.398Z,1016.82
2018-04-17T03:01:43.540Z,1016.79
2018-04-17T03:02:09.730Z,1016.85
2018-04-17T03:02:35.863Z,1016.84
2018-04-17T03:03:02.046Z,1016.83
2018-04-17T03:03:28.188Z,1016.81
2018-04-17T03:03:54.330Z,1016.82
2018-04-17T03:04:20.489Z,1016.82
2018-04-17T03:04:46.625Z,1016.81
2018-04-17T03:05:12.792Z,1016.85
2018-04-17T03:05:38.948Z,1016.82
2018-04-17T03:06:05.084Z,1016.8
2018-04-17T03:06:31.218Z,1016.85
2018-04-17T03:06:57.382Z,1016.82
2018-04-17T03:07:23.540Z,1016.8
2018-04-17T03:07:49.713Z,1016.8
2018-04-17T03:08:15.848Z,1016.84
2018-04-17T03:08:42.061Z,1016.8
2018-04-17T03:09:08.255Z,1016.75
2018-04-17T03:09:34.416Z,1016.78
2018-04-17T03:10:00.605Z,1016.78
2018-04-17T03:10:26.764Z,1016.77
2018-04-17T03:10:52.928Z,1016.77
2018-04-17T03:11:19.082Z,1016.78
2018-04-17T03:11:45.225Z,1016.78
2018-04-17T03:12:11.363Z,1016.78
2018-04-17T03:12:37.494Z,1016.72
2018-04-17T03:13:03.655Z,1016.74
2018-04-17T03:13:29.793Z,1016.75
2018-04-17T03:13:55.931Z,1016.74
2018-04-17T03:14:22.067Z,1016.73
2018-04-17T03:14:48.203Z,1016.72
2018-04-17T03:15:14.336Z,1016.73
2018-04-17T03:15:40.479Z,1016.73
2018-04-17T03:16:06.621Z,1016.75
2018-04-17T03:16:32.781Z,1016.75
2018-04-17T03:16:58.918Z,1016.75
2018-04-17T03:17:25.063Z,1016.74
2018-04-17T03:17:51.196Z,1016.73
2018-04-17T03:18:17.353Z,1016.77
2018-04-17T03:18:43.491Z,1016.71
2018-04-17T03:19:09.624Z,1016.74
2018-04-17T03:19:35.763Z,1016.76
2018-04-17T03:20:01.898Z,1016.77
2018-04-17T03:20:28.037Z,1016.73
2018-04-17T03:20:54.174Z,1016.75
2018-04-17T03:21:20.315Z,1016.77
2018-04-17T03:21:46.453Z,1016.76
2018-04-17T03:22:12.595Z,1016.78
2018-04-17T03:22:38.736Z,1016.74
2018-04-17T03:23:04.871Z,1016.77
2018-04-17T03:23:31.008Z,1016.75
2018-04-17T03:23:57.196Z,1016.73
2018-04-17T03:24:23.330Z,1016.8
2018-04-17T03:24:49.476Z,1016.78
2018-04-17T03:25:15.611Z,1016.79
2018-04-17T03:25:41.751Z,1016.76
2018-04-17T03:26:07.894Z,1016.85
2018-04-17T03:26:34.031Z,1016.78
2018-04-17T03:27:00.165Z,1016.8
2018-04-17T03:27:26.305Z,1016.78
2018-04-17T03:27:52.445Z,1016.81
2018-04-17T03:28:18.609Z,1016.81
2018-04-17T03:28:44.745Z,1016.84
2018-04-17T03:29:10.914Z,1016.83
2018-04-17T03:29:37.053Z,1016.85
2018-04-17T03:30:03.235Z,1016.83
2018-04-17T03:30:29.428Z,1016.89
2018-04-17T03:30:55.565Z,1016.89
2018-04-17T03:31:21.725Z,1016.81
2018-04-17T03:31:47.904Z,1016.87
2018-04-17T03:32:14.042Z,1016.85
2018-04-17T03:32:40.178Z,1016.83
2018-04-17T03:33:06.350Z,1016.86
2018-04-17T03:33:32.476Z,1016.85
2018-04-17T03:33:58.608Z,1016.84
2018-04-17T03:34:24.753Z,1016.85
2018-04-17T03:34:50.887Z,1016.84
2018-04-17T03:35:17.049Z,1016.86
2018-04-17T03:35:43.212Z,1016.84
2018-04-17T03:36:09.351Z,1016.82
2018-04-17T03:36:35.495Z,1016.83
2018-04-17T03:37:01.632Z,1016.84
2018-04-17T03:37:27.798Z,1016.83
2018-04-17T03:37:53.934Z,1016.86
2018-04-17T03:38:20.074Z,1016.88
2018-04-17T03:38:46.211Z,1016.86
2018-04-17T03:39:12.352Z,1016.85
2018-04-17T03:39:38.512Z,1016.89
2018-04-17T03:40:04.649Z,1016.84
2018-04-17T03:40:30.809Z,1016.88
2018-04-17T03:40:56.952Z,1016.87
2018-04-17T03:41:23.086Z,1016.86
2018-04-17T03:41:49.221Z,1016.85
2018-04-17T03:42:15.367Z,1016.88
2018-04-17T03:42:41.501Z,1016.86
2018-04-17T03:43:07.668Z,1016.82
2018-04-17T03:43:33.809Z,1016.86
2018-04-17T03:43:59.992Z,1016.86
2018-04-17T03:44:26.132Z,1016.83
2018-04-17T03:44:52.274Z,1016.85
2018-04-17T03:45:18.432Z,1016.86
2018-04-17T03:45:44.568Z,1016.87
2018-04-17T03:46:10.711Z,1016.84
2018-04-17T03:46:36.848Z,1016.85
2018-04-17T03:47:02.992Z,1016.86
2018-04-17T03:47:29.128Z,1016.85
2018-04-17T03:47:55.266Z,1016.84
2018-04-17T03:48:21.436Z,1016.84
2018-04-17T03:48:47.582Z,1016.84
2018-04-17T03:49:13.720Z,1016.84
2018-04-17T03:49:39.882Z,1016.85
2018-04-17T03:50:06.028Z,1016.84
2018-04-17T03:50:32.185Z,1016.85
2018-04-17T03:50:58.324Z,1016.82
2018-04-17T03:51:24.488Z,1016.87
2018-04-17T03:51:50.624Z,1016.82
2018-04-17T03:52:16.793Z,1016.86
2018-04-17T03:52:42.954Z,1016.84
2018-04-17T03:53:09.117Z,1016.85
2018-04-17T03:53:35.256Z,1016.83
2018-04-17T03:54:01.398Z,1016.82
2018-04-17T03:54:27.539Z,1016.8
2018-04-17T03:54:53.680Z,1016.84
2018-04-17T03:55:19.837Z,1016.81
2018-04-17T03:55:45.980Z,1016.81
2018-04-17T03:56:12.112Z,1016.85
2018-04-17T03:56:38.281Z,1016.84
2018-04-17T03:57:04.417Z,1016.8
2018-04-17T03:57:30.553Z,1016.79
2018-04-17T03:57:56.726Z,1016.81
2018-04-17T03:58:22.860Z,1016.83
2018-04-17T03:58:49.027Z,1016.81
2018-04-17T03:59:15.211Z,1016.82
2018-04-17T03:59:41.349Z,1016.81
2018-04-17T04:00:07.484Z,1016.82
2018-04-17T04:00:33.626Z,1016.84
2018-04-17T04:00:59.788Z,1016.8
2018-04-17T04:01:25.927Z,1016.79
2018-04-17T04:01:52.064Z,1016.83
2018-04-17T04:02:18.205Z,1016.83
2018-04-17T04:02:44.400Z,1016.8
2018-04-17T04:03:10.509Z,1016.86
2018-04-17T04:03:36.655Z,1016.86
2018-04-17T04:04:02.788Z,1016.82
2018-04-17T04:04:28.959Z,1016.83
2018-04-17T04:04:55.108Z,1016.83
2018-04-17T04:05:21.237Z,1016.8
2018-04-17T04:05:47.376Z,1016.83
2018-04-17T04:06:13.510Z,1016.83
2018-04-17T04:06:39.650Z,1016.84
2018-04-17T04:07:05.793Z,1016.84
2018-04-17T04:07:31.930Z,1016.84
2018-04-17T04:07:58.088Z,1016.85
2018-04-17T04:08:24.232Z,1016.82
2018-04-17T04:08:50.422Z,1016.83
2018-04-17T04:09:16.556Z,1016.81
2018-04-17T04:09:42.719Z,1016.86
2018-04-17T04:10:08.884Z,1016.89
2018-04-17T04:10:35.028Z,1016.88
2018-04-17T04:11:01.168Z,1016.91
2018-04-17T04:11:27.305Z,1016.89
2018-04-17T04:11:53.467Z,1016.93
2018-04-17T04:12:19.601Z,1016.95
2018-04-17T04:12:45.743Z,1016.94
2018-04-17T04:13:11.880Z,1016.93
2018-04-17T04:13:38.024Z,1016.9
2018-04-17T04:14:04.167Z,1016.93
2018-04-17T04:14:30.322Z,1016.95
2018-04-17T04:14:56.488Z,1016.93
2018-04-17T04:15:22.654Z,1016.92
2018-04-17T04:15:48.790Z,1016.95
2018-04-17T04:16:14.950Z,1016.97
2018-04-17T04:16:41.067Z,1016.95
2018-04-17T04:17:07.231Z,1016.95
2018-04-17T04:17:33.411Z,1016.97
2018-04-17T04:17:59.550Z,1016.96
2018-04-17T04:18:25.687Z,1016.97
2018-04-17T04:18:51.827Z,1016.98
2018-04-17T04:19:17.966Z,1016.98
2018-04-17T04:19:44.140Z,1016.96
2018-04-17T04:20:10.295Z,1016.97
2018-04-17T04:20:36.435Z,1016.97
2018-04-17T04:21:02.569Z,1016.99
2018-04-17T04:21:28.712Z,1017.02
2018-04-17T04:21:54.856Z,1016.96
2018-04-17T04:22:20.994Z,1016.99
2018-04-17T04:22:47.124Z,1016.98
2018-04-17T04:23:13.293Z,1017.03
2018-04-17T04:23:39.436Z,1017.03
2018-04-17T04:24:05.572Z,1017.02
2018-04-17T04:24:31.714Z,1017
2018-04-17T04:24:57.852Z,1017.02
2018-04-17T04:25:24.012Z,1017.03
2018-04-17T04:25:50.153Z,1016.97
2018-04-17T04:26:16.289Z,1017.03
2018-04-17T04:26:42.433Z,1017.03
2018-04-17T04:27:08.569Z,1017.01
2018-04-17T04:27:34.708Z,1017.02
2018-04-17T04:28:00.899Z,1017.03
2018-04-17T04:28:27.034Z,1017.08
2018-04-17T04:28:53.175Z,1017.03
2018-04-17T04:29:19.337Z,1017.03
2018-04-17T04:29:45.473Z,1017.04
2018-04-17T04:30:11.611Z,1017.05
2018-04-17T04:30:37.771Z,1017.09
2018-04-17T04:31:03.921Z,1017.05
2018-04-17T04:31:30.057Z,1017.07
2018-04-17T04:31:56.218Z,1017.11
2018-04-17T04:32:22.354Z,1017.14
2018-04-17T04:32:48.521Z,1017.1
2018-04-17T04:33:14.662Z,1017.11
2018-04-17T04:33:40.803Z,1017.07
2018-04-17T04:34:06.944Z,1017.13
2018-04-17T04:34:33.083Z,1017.14
2018-04-17T04:34:59.241Z,1017.12
2018-04-17T04:35:25.380Z,1017.16
2018-04-17T04:35:51.530Z,1017.14
2018-04-17T04:36:17.712Z,1017.16
2018-04-17T04:36:43.855Z,1017.22
2018-04-17T04:37:09.990Z,1017.19
2018-04-17T04:37:36.133Z,1017.18
2018-04-17T04:38:02.265Z,1017.22
2018-04-17T04:38:28.423Z,1017.2
2018-04-17T04:38:54.565Z,1017.2
2018-04-17T04:39:20.700Z,1017.21
2018-04-17T04:39:46.849Z,1017.21
2018-04-17T04:40:12.986Z,1017.24
2018-04-17T04:40:39.121Z,1017.24
2018-04-17T04:41:05.290Z,1017.26
2018-04-17T04:41:31.427Z,1017.27
2018-04-17T04:41:57.567Z,1017.26
2018-04-17T04:42:23.743Z,1017.29
2018-04-17T04:42:49.881Z,1017.24
2018-04-17T04:43:16.022Z,1017.25
2018-04-17T04:43:42.190Z,1017.28
2018-04-17T04:44:08.327Z,1017.22
2018-04-17T04:44:34.463Z,1017.29
2018-04-17T04:45:00.604Z,1017.26
2018-04-17T04:45:26.746Z,1017.3
2018-04-17T04:45:52.901Z,1017.28
2018-04-17T04:46:19.068Z,1017.25
2018-04-17T04:46:45.208Z,1017.27
2018-04-17T04:47:11.370Z,1017.3
2018-04-17T04:47:37.507Z,1017.28
2018-04-17T04:48:03.643Z,1017.3
2018-04-17T04:48:29.815Z,1017.28
2018-04-17T04:48:55.952Z,1017.33
2018-04-17T04:49:22.089Z,1017.3
2018-04-17T04:49:48.230Z,1017.33
2018-04-17T04:50:14.369Z,1017.36
2018-04-17T04:50:40.506Z,1017.34
2018-04-17T04:51:06.675Z,1017.38
2018-04-17T04:51:32.805Z,1017.36
2018-04-17T04:51:58.957Z,1017.34
2018-04-17T04:52:25.087Z,1017.37
2018-04-17T04:52:51.249Z,1017.38
2018-04-17T04:53:17.382Z,1017.37
2018-04-17T04:53:43.530Z,1017.39
2018-04-17T04:54:09.711Z,1017.39
2018-04-17T04:54:35.849Z,1017.37
2018-04-17T04:55:01.992Z,1017.39
2018-04-17T04:55:28.128Z,1017.42
2018-04-17T04:55:54.291Z,1017.45
2018-04-17T04:56:20.431Z,1017.43
2018-04-17T04:56:46.571Z,1017.44
2018-04-17T04:57:12.715Z,1017.42
2018-04-17T04:57:38.892Z,1017.47
2018-04-17T04:58:05.014Z,1017.46
2018-04-17T04:58:31.153Z,1017.48
2018-04-17T04:58:57.295Z,1017.49
2018-04-17T04:59:23.433Z,1017.49
2018-04-17T04:59:49.582Z,1017.5
2018-04-17T05:00:15.720Z,1017.48
2018-04-17T05:00:41.888Z,1017.48
2018-04-17T05:01:08.028Z,1017.5
2018-04-17T05:01:34.181Z,1017.5
2018-04-17T05:02:00.335Z,1017.52
2018-04-17T05:02:26.481Z,1017.52
2018-04-17T05:02:52.649Z,1017.5
2018-04-17T05:03:18.835Z,1017.54
2018-04-17T05:03:44.973Z,1017.52
2018-04-17T05:04:11.138Z,1017.51
2018-04-17T05:04:37.277Z,1017.53
2018-04-17T05:05:03.437Z,1017.54
2018-04-17T05:05:29.575Z,1017.56
2018-04-17T05:05:55.734Z,1017.55
2018-04-17T05:06:21.897Z,1017.59
2018-04-17T05:06:48.040Z,1017.61
2018-04-17T05:07:14.177Z,1017.58
2018-04-17T05:07:40.317Z,1017.56
2018-04-17T05:08:06.460Z,1017.58
2018-04-17T05:08:32.593Z,1017.6
2018-04-17T05:08:58.735Z,1017.6
2018-04-17T05:09:24.877Z,1017.62
2018-04-17T05:09:51.022Z,1017.63
2018-04-17T05:10:17.157Z,1017.62
2018-04-17T05:10:43.292Z,1017.63
2018-04-17T05:11:09.457Z,1017.64
2018-04-17T05:11:35.614Z,1017.64
2018-04-17T05:12:01.808Z,1017.62
2018-04-17T05:12:27.938Z,1017.62
2018-04-17T05:12:54.115Z,1017.69
2018-04-17T05:13:20.242Z,1017.66
2018-04-17T05:13:46.375Z,1017.68
2018-04-17T05:14:12.512Z,1017.67
2018-04-17T05:14:38.678Z,1017.72
2018-04-17T05:15:04.813Z,1017.73
2018-04-17T05:15:30.950Z,1017.73
2018-04-17T05:15:57.086Z,1017.74
2018-04-17T05:16:23.234Z,1017.72
2018-04-17T05:16:49.370Z,1017.74
2018-04-17T05:17:15.560Z,1017.76
2018-04-17T05:17:41.694Z,1017.73